Time;durP1;ratioP1;P1;durP2;ratioP2;P2;SDS_P1;SDS_P2;PMS_P1;PMS_P2;Temp;Humidity;BMP_temperature;BMP_pressure;BME280_temperature;BME280_humidity;BME280_pressure;Samples;Min_cycle;Max_cycle;Signal;HPM_P1;HPM_P2
2023/05/23 00:01:44;;;;;;;8.45;3.85;;;;;;;13.19;51.07;101199.47;5043199;28;20049;-59
2023/05/23 00:04:15;;;;;;;7.88;4.18;;;;;;;13.17;51.05;101190.81;5038919;28;20120;-60
2023/05/23 00:06:46;;;;;;;6.70;4.32;;;;;;;13.15;52.08;101189.91;5039496;28;20056;-59
2023/05/23 00:09:13;;;;;;;5.85;4.15;;;;;;;13.15;51.54;101187.31;5034439;28;20055;-60
2023/05/23 00:11:43;;;;;;;7.05;3.85;;;;;;;13.14;51.44;101177.78;5039808;28;20041;-60
2023/05/23 00:14:12;;;;;;;7.72;4.35;;;;;;;13.11;52.40;101187.28;5033584;28;20069;-59
2023/05/23 00:16:41;;;;;;;7.07;4.82;;;;;;;13.10;52.86;101182.97;5043244;28;20051;-60
2023/05/23 00:19:08;;;;;;;8.93;4.32;;;;;;;13.08;52.48;101189.88;5037819;28;20065;-59
2023/05/23 00:21:37;;;;;;;8.85;4.53;;;;;;;13.08;52.27;101189.88;5044145;28;20064;-60
2023/05/23 00:24:05;;;;;;;7.30;4.07;;;;;;;13.08;52.73;101189.88;5047105;28;20053;-60
2023/05/23 00:26:33;;;;;;;6.65;3.63;;;;;;;13.09;52.15;101191.63;5046401;28;20474;-59
2023/05/23 00:29:02;;;;;;;7.60;4.07;;;;;;;13.10;52.89;101193.38;5047226;28;20393;-60
2023/05/23 00:31:31;;;;;;;8.63;4.20;;;;;;;13.13;53.72;101202.06;5045583;28;20045;-59
2023/05/23 00:34:00;;;;;;;9.70;3.92;;;;;;;13.14;53.45;101203.81;5046609;28;20052;-59
2023/05/23 00:36:29;;;;;;;7.10;4.82;;;;;;;13.13;53.82;101209.88;5046269;28;20481;-59
2023/05/23 00:38:57;;;;;;;5.85;1.88;;;;;;;13.11;53.92;101209.84;5039678;28;20483;-60
2023/05/23 00:41:29;;;;;;;7.90;4.00;;;;;;;13.08;54.38;101209.84;5044162;28;20041;-60
2023/05/23 00:43:58;;;;;;;7.53;4.30;;;;;;;13.03;54.34;101207.19;5046321;28;20075;-60
2023/05/23 00:46:27;;;;;;;6.10;3.85;;;;;;;13.00;54.43;101209.78;5044528;28;20053;-60
2023/05/23 00:48:55;;;;;;;7.80;4.18;;;;;;;12.96;54.74;101205.41;5043195;28;20507;-60
2023/05/23 00:51:25;;;;;;;8.50;4.68;;;;;;;12.90;53.33;101205.41;5046048;28;20045;-60
2023/05/23 00:53:54;;;;;;;7.13;4.43;;;;;;;12.84;54.39;101206.22;5040510;28;20041;-59
2023/05/23 00:56:22;;;;;;;7.47;3.80;;;;;;;12.75;54.25;101207.03;5046954;28;20053;-60
2023/05/23 00:58:50;;;;;;;8.48;4.32;;;;;;;12.70;54.59;101203.53;5043042;28;20057;-60
2023/05/23 01:01:17;;;;;;;9.07;5.28;;;;;;;12.66;53.97;101204.38;5043578;28;20125;-60
2023/05/23 01:03:47;;;;;;;7.55;4.18;;;;;;;12.59;54.57;101201.72;5038352;28;20049;-60
2023/05/23 01:06:13;;;;;;;7.32;2.85;;;;;;;12.55;55.10;101204.28;5042670;28;20752;-60
2023/05/23 01:08:41;;;;;;;10.02;3.70;;;;;;;12.49;55.29;101202.50;5043913;28;20588;-60
2023/05/23 01:11:34;;;;;;;7.72;4.22;;;;;;;12.37;55.41;101199.81;5041521;28;20067;-60
2023/05/23 01:14:11;;;;;;;7.70;3.95;;;;;;;12.34;55.32;101206.72;5029164;28;20342;-60
2023/05/23 01:16:47;;;;;;;7.55;4.40;;;;;;;12.31;55.45;101201.50;5045042;28;20045;-60
2023/05/23 01:19:53;;;;;;;7.82;5.07;;;;;;;12.23;55.90;101202.28;5044299;28;20041;-60
2023/05/23 01:25:42;;;;;;;6.60;2.38;;;;;;;12.14;56.15;101197.88;5035070;28;20418;-59
2023/05/23 01:28:14;;;;;;;5.78;1.65;;;;;;;12.18;56.07;101204.84;5003197;28;20488;-61
2023/05/23 01:30:44;;;;;;;4.97;1.92;;;;;;;12.20;55.01;101204.00;4999628;28;20053;-60
2023/05/23 01:33:15;;;;;;;6.82;1.80;;;;;;;12.20;56.41;101200.53;5005425;28;20378;-60
2023/05/23 01:35:42;;;;;;;4.50;2.13;;;;;;;12.21;55.05;101200.56;5008252;28;20065;-60
2023/05/23 01:38:09;;;;;;;3.90;1.42;;;;;;;12.24;56.14;101191.91;5003542;28;20084;-60
2023/05/23 01:40:36;;;;;;;7.28;2.25;;;;;;;12.27;56.35;101199.75;5023460;28;20052;-60
2023/05/23 01:43:03;;;;;;;4.10;1.45;;;;;;;12.30;56.08;101199.75;5023160;28;20038;-60
2023/05/23 01:45:30;;;;;;;12.32;1.90;;;;;;;12.34;55.89;101205.84;5018072;28;20057;-59
2023/05/23 01:47:57;;;;;;;4.40;2.15;;;;;;;12.37;55.75;101195.50;5022216;28;20132;-59
2023/05/23 01:50:25;;;;;;;3.78;1.27;;;;;;;12.40;55.70;101205.03;5020441;28;20053;-59
2023/05/23 01:52:53;;;;;;;4.63;1.85;;;;;;;12.42;56.38;101203.31;5023019;28;20057;-60
2023/05/23 01:55:23;;;;;;;5.45;1.90;;;;;;;12.43;56.72;101202.47;5022074;28;20133;-59
2023/05/23 01:57:51;;;;;;;4.13;1.77;;;;;;;12.44;56.87;101201.59;5019983;28;20394;-59
2023/05/23 02:00:17;;;;;;;5.05;2.08;;;;;;;12.43;57.63;101205.06;5022591;28;20049;-60
2023/05/23 02:02:45;;;;;;;4.97;2.10;;;;;;;12.43;58.30;101205.94;5031782;28;20056;-60
2023/05/23 02:05:11;;;;;;;6.35;1.98;;;;;;;12.39;57.70;101205.91;5024469;28;20045;-60
2023/05/23 02:07:38;;;;;;;4.47;1.67;;;;;;;12.37;58.94;101205.00;5015221;28;20042;-60
2023/05/23 02:10:07;;;;;;;3.72;1.73;;;;;;;12.37;58.84;101210.22;5016967;28;20075;-59
2023/05/23 02:12:34;;;;;;;5.03;2.05;;;;;;;12.34;59.06;101219.69;5012373;28;20041;-60
2023/05/23 02:15:01;;;;;;;4.07;1.58;;;;;;;12.34;58.87;101209.31;5018128;28;20050;-60
2023/05/23 02:17:27;;;;;;;7.55;2.25;;;;;;;12.34;58.07;101214.50;5017751;28;20045;-60
2023/05/23 02:19:55;;;;;;;4.20;2.45;;;;;;;12.34;58.85;101211.91;5017764;28;20096;-60
2023/05/23 02:22:24;;;;;;;6.97;2.42;;;;;;;12.36;58.83;101211.06;5020765;28;20138;-60
2023/05/23 02:24:51;;;;;;;4.30;1.88;;;;;;;12.34;58.44;101201.50;5019028;28;20111;-59
2023/05/23 02:27:18;;;;;;;4.55;2.08;;;;;;;12.35;58.41;101207.59;5015985;28;20155;-59
2023/05/23 02:29:45;;;;;;;5.32;1.88;;;;;;;12.36;57.95;101208.47;5018389;28;20057;-59
2023/05/23 02:32:11;;;;;;;5.93;2.17;;;;;;;12.37;58.00;101205.00;5018659;28;20052;-60
2023/05/23 02:34:39;;;;;;;5.18;2.00;;;;;;;12.38;58.99;101209.34;5014392;28;20057;-60
2023/05/23 02:37:06;;;;;;;8.30;2.35;;;;;;;12.36;59.05;101205.88;5002843;28;20053;-59
2023/05/23 02:39:35;;;;;;;6.28;1.98;;;;;;;12.33;58.61;101204.97;4998107;28;20056;-60
2023/05/23 02:42:03;;;;;;;6.13;1.70;;;;;;;12.29;59.15;101208.41;5006838;28;20046;-59
2023/05/23 02:44:30;;;;;;;4.22;1.73;;;;;;;12.26;59.20;101207.53;5004829;28;20729;-60
2023/05/23 02:46:57;;;;;;;7.53;1.90;;;;;;;12.22;58.16;101217.00;5004830;28;20560;-59
2023/05/23 02:49:24;;;;;;;6.10;1.98;;;;;;;12.18;58.07;101210.03;5011129;28;20053;-60
2023/05/23 02:51:51;;;;;;;5.20;1.83;;;;;;;12.15;58.50;101215.19;5005333;28;20060;-59
2023/05/23 02:54:17;;;;;;;6.30;2.80;;;;;;;12.11;59.24;101208.22;5001623;28;20049;-60
2023/05/23 02:56:44;;;;;;;3.95;1.85;;;;;;;12.06;59.37;101211.66;5003773;28;20062;-59
2023/05/23 02:59:12;;;;;;;6.55;1.77;;;;;;;12.01;58.63;101210.72;5006339;28;20041;-60
2023/05/23 03:01:38;;;;;;;5.60;1.98;;;;;;;11.98;59.50;101202.88;5005293;28;20034;-60
2023/05/23 03:04:05;;;;;;;7.60;2.13;;;;;;;11.94;58.28;101216.69;5007862;28;20119;-60
2023/05/23 03:06:32;;;;;;;6.07;1.65;;;;;;;11.90;58.92;101215.81;5007646;28;20053;-59
2023/05/23 03:09:00;;;;;;;5.10;1.85;;;;;;;11.86;59.22;101215.75;5006269;28;20057;-60
2023/05/23 03:11:28;;;;;;;5.57;1.58;;;;;;;11.81;58.75;101220.88;4998086;28;20065;-59
2023/05/23 03:13:55;;;;;;;5.65;1.88;;;;;;;11.79;59.65;101223.47;5003731;28;20062;-59
2023/05/23 03:16:23;;;;;;;3.92;1.58;;;;;;;11.77;59.17;101219.09;5004731;28;20738;-59
2023/05/23 03:18:50;;;;;;;4.80;1.75;;;;;;;11.75;59.41;101216.50;5009562;28;20742;-60
2023/05/23 03:21:16;;;;;;;5.63;1.80;;;;;;;11.74;59.42;101224.25;5002018;28;20046;-60
2023/05/23 03:23:43;;;;;;;3.50;1.52;;;;;;;11.70;58.62;101223.38;5003699;28;20048;-59
2023/05/23 03:26:10;;;;;;;5.20;1.65;;;;;;;11.68;59.69;101227.66;5010323;28;20049;-60
2023/05/23 03:28:37;;;;;;;6.00;1.65;;;;;;;11.63;59.96;101229.34;5008962;28;20469;-60
2023/05/23 03:31:04;;;;;;;5.10;2.22;;;;;;;11.60;59.43;101230.19;5004034;28;20046;-60
2023/05/23 03:33:30;;;;;;;4.60;1.88;;;;;;;11.56;60.04;101229.25;5006695;28;20046;-59
2023/05/23 03:35:57;;;;;;;4.95;1.35;;;;;;;11.53;60.03;101226.66;5006553;28;20060;-60
2023/05/23 03:38:24;;;;;;;5.05;1.83;;;;;;;11.49;60.20;101229.16;5003971;28;20044;-60
2023/05/23 03:40:51;;;;;;;5.35;1.88;;;;;;;11.46;59.71;101239.50;5008113;28;20678;-60
2023/05/23 03:43:18;;;;;;;4.40;1.83;;;;;;;11.42;59.99;101238.59;5004562;28;20056;-60
2023/05/23 03:45:44;;;;;;;7.40;1.92;;;;;;;11.42;60.87;101241.19;5000426;28;20549;-60
2023/05/23 03:48:11;;;;;;;9.43;2.15;;;;;;;11.42;60.43;101239.47;5006010;28;20037;-59
2023/05/23 03:50:39;;;;;;;3.17;1.38;;;;;;;11.43;60.24;101240.34;5006536;28;20125;-60
2023/05/23 03:53:06;;;;;;;5.68;2.13;;;;;;;11.46;60.34;101240.38;5004382;28;20048;-60
2023/05/23 03:55:33;;;;;;;6.53;1.67;;;;;;;11.49;60.73;101235.25;5005777;28;20121;-59
2023/05/23 03:57:59;;;;;;;5.40;1.75;;;;;;;11.53;60.74;101241.31;5006044;28;20074;-60
2023/05/23 04:00:26;;;;;;;5.43;1.92;;;;;;;11.56;60.51;101237.03;5005797;28;20104;-60
2023/05/23 04:02:53;;;;;;;2.85;1.35;;;;;;;11.59;60.63;101241.41;5008291;28;20153;-60
2023/05/23 04:05:20;;;;;;;5.45;1.50;;;;;;;11.62;61.00;101240.56;5004877;28;20038;-59
2023/05/23 04:07:47;;;;;;;5.80;1.55;;;;;;;11.65;61.29;101245.81;5006869;28;20500;-60
2023/05/23 04:10:14;;;;;;;5.85;1.75;;;;;;;11.67;60.42;101233.72;5004843;28;20050;-59
2023/05/23 04:12:41;;;;;;;3.97;1.73;;;;;;;11.68;60.87;101240.63;5000772;28;20104;-60
2023/05/23 04:15:08;;;;;;;3.38;1.33;;;;;;;11.69;61.61;101247.59;5003746;28;20096;-59
2023/05/23 04:17:37;;;;;;;5.70;1.40;;;;;;;11.69;60.98;101250.19;5000709;28;20056;-59
2023/05/23 04:20:08;;;;;;;8.25;1.83;;;;;;;11.71;61.62;101251.06;5004340;28;20057;-60
2023/05/23 04:22:35;;;;;;;4.15;1.20;;;;;;;11.70;60.98;101259.69;5006587;28;20527;-60
2023/05/23 04:25:01;;;;;;;4.28;1.80;;;;;;;11.70;60.92;101254.50;5004287;28;20056;-60
2023/05/23 04:27:29;;;;;;;4.28;1.75;;;;;;;11.73;60.53;101258.88;5001150;28;20046;-60
2023/05/23 04:29:57;;;;;;;6.13;2.17;;;;;;;11.72;60.27;101255.38;5006276;28;20076;-60
2023/05/23 04:32:24;;;;;;;3.72;1.30;;;;;;;11.73;61.18;101258.88;5007621;28;20045;-60
2023/05/23 04:34:51;;;;;;;4.47;2.45;;;;;;;11.73;60.92;101264.06;5006785;28;20464;-60
2023/05/23 04:37:21;;;;;;;5.22;1.50;;;;;;;11.73;60.28;101254.56;5014906;28;20073;-60
2023/05/23 04:39:47;;;;;;;7.03;2.00;;;;;;;11.73;60.18;101251.97;5011833;28;20168;-60
2023/05/23 04:42:14;;;;;;;3.67;1.40;;;;;;;11.74;60.26;101260.59;5003162;28;20053;-60
2023/05/23 04:44:41;;;;;;;3.60;1.63;;;;;;;11.75;60.69;101263.22;5011069;28;20076;-60
2023/05/23 04:47:08;;;;;;;4.93;1.63;;;;;;;11.77;61.31;101261.53;5004563;28;20064;-60
2023/05/23 04:49:36;;;;;;;3.83;1.30;;;;;;;11.79;60.02;101265.00;5006670;28;20069;-60
2023/05/23 04:52:03;;;;;;;4.57;1.88;;;;;;;11.80;60.01;101271.94;4996126;28;20060;-60
2023/05/23 04:54:30;;;;;;;5.25;1.83;;;;;;;11.85;60.63;101268.53;4986288;28;20049;-60
2023/05/23 04:56:57;;;;;;;5.22;1.90;;;;;;;11.87;60.17;101272.88;5007998;28;20084;-59
2023/05/23 04:59:23;;;;;;;4.53;2.13;;;;;;;11.92;60.99;101280.75;4999362;28;20054;-60
2023/05/23 05:01:50;;;;;;;5.38;1.42;;;;;;;11.95;60.98;101280.75;5004718;28;20054;-60
2023/05/23 05:04:16;;;;;;;5.20;1.67;;;;;;;11.98;60.42;101275.59;5004985;28;20038;-60
2023/05/23 05:06:43;;;;;;;5.25;1.75;;;;;;;12.01;60.39;101272.16;5003899;28;20049;-60
2023/05/23 05:09:10;;;;;;;3.45;1.40;;;;;;;12.04;59.85;101270.47;5006173;28;20046;-60
2023/05/23 05:11:36;;;;;;;5.50;1.38;;;;;;;12.07;59.59;101278.34;5006565;28;20077;-60
2023/05/23 05:14:03;;;;;;;6.03;1.70;;;;;;;12.11;60.21;101275.75;5009098;28;20429;-60
2023/05/23 05:16:30;;;;;;;4.70;1.55;;;;;;;12.12;60.97;101273.19;4997633;28;20092;-60
2023/05/23 05:18:57;;;;;;;4.63;1.77;;;;;;;12.13;59.79;101274.06;4997450;28;20072;-60
2023/05/23 05:21:24;;;;;;;4.00;1.35;;;;;;;12.13;59.98;101268.88;5007459;28;20049;-60
2023/05/23 05:23:51;;;;;;;6.60;2.08;;;;;;;12.14;60.45;101275.78;5000337;28;20045;-60
2023/05/23 05:26:18;;;;;;;4.47;1.42;;;;;;;12.14;59.40;101275.78;5003962;28;20052;-60
2023/05/23 05:28:44;;;;;;;6.05;1.20;;;;;;;12.16;59.55;101279.28;5001385;28;20048;-60
2023/05/23 05:31:14;;;;;;;3.63;1.20;;;;;;;12.16;59.45;101277.53;5000617;28;21853;-61
2023/05/23 05:33:44;;;;;;;4.75;1.75;;;;;;;12.18;59.60;101277.56;5004933;28;20062;-60
2023/05/23 05:36:11;;;;;;;3.53;1.48;;;;;;;12.20;59.41;101287.09;5005848;28;20050;-60
2023/05/23 05:38:38;;;;;;;5.65;1.63;;;;;;;12.23;60.44;101275.91;5005295;28;20413;-60
2023/05/23 05:41:04;;;;;;;7.50;1.42;;;;;;;12.24;60.55;101279.34;5002270;28;20042;-60
2023/05/23 05:43:34;;;;;;;5.00;1.45;;;;;;;12.23;60.14;101275.03;5006367;28;20049;-60
2023/05/23 05:46:01;;;;;;;4.05;1.02;;;;;;;12.21;60.64;101280.19;4999773;28;20085;-60
2023/05/23 05:48:28;;;;;;;3.92;1.20;;;;;;;12.21;59.35;101288.00;5001753;28;20137;-59
2023/05/23 05:50:54;;;;;;;4.72;1.08;;;;;;;12.23;58.97;101269.81;5002916;28;20050;-60
2023/05/23 05:53:21;;;;;;;5.80;0.98;;;;;;;12.25;60.39;101274.19;4998433;28;20569;-60
2023/05/23 05:55:48;;;;;;;4.95;1.00;;;;;;;12.31;59.15;101274.25;5004136;28;20050;-60
2023/05/23 05:58:15;;;;;;;5.82;1.45;;;;;;;12.34;60.13;101279.44;4997561;28;20124;-60
2023/05/23 06:00:42;;;;;;;4.85;1.65;;;;;;;12.37;59.40;101283.84;4998060;28;20049;-60
2023/05/23 06:03:08;;;;;;;5.93;1.48;;;;;;;12.41;59.54;101279.53;5002502;28;20057;-59
2023/05/23 06:05:36;;;;;;;6.18;1.58;;;;;;;12.46;58.99;101283.91;5001442;28;20096;-59
2023/05/23 06:08:03;;;;;;;4.13;1.45;;;;;;;12.53;58.96;101286.56;5002809;28;20080;-60
2023/05/23 06:10:30;;;;;;;5.10;1.17;;;;;;;12.59;59.24;101290.09;5002576;28;20073;-60
2023/05/23 06:12:57;;;;;;;5.00;1.45;;;;;;;12.66;60.13;101290.16;5004097;28;20120;-60
2023/05/23 06:15:25;;;;;;;6.22;1.73;;;;;;;12.71;59.18;101286.72;5006893;28;20056;-61
2023/05/23 06:17:51;;;;;;;4.07;1.17;;;;;;;12.78;59.60;101287.66;5003682;28;20058;-61
2023/05/23 06:20:18;;;;;;;4.68;1.52;;;;;;;12.84;60.47;101290.28;5010210;28;20615;-61
2023/05/23 06:22:45;;;;;;;5.90;1.25;;;;;;;12.88;59.22;101292.91;5005970;28;20152;-61
2023/05/23 06:25:12;;;;;;;5.85;1.20;;;;;;;12.89;59.08;101286.84;5005066;28;20141;-61
2023/05/23 06:27:38;;;;;;;3.55;1.17;;;;;;;12.91;59.30;101293.81;5009492;28;20065;-60
2023/05/23 06:30:06;;;;;;;6.32;1.45;;;;;;;12.94;59.45;101291.22;5006592;28;20077;-61
2023/05/23 06:32:32;;;;;;;4.93;1.17;;;;;;;12.98;59.98;101292.97;5003350;28;20057;-61
2023/05/23 06:34:59;;;;;;;2.67;1.02;;;;;;;13.01;59.66;101293.88;5004908;28;20045;-61
2023/05/23 06:37:26;;;;;;;6.78;1.30;;;;;;;13.04;58.88;101289.56;5003802;28;20137;-61
2023/05/23 06:39:52;;;;;;;3.05;1.23;;;;;;;13.07;58.85;101281.78;5004504;28;20061;-60
2023/05/23 06:42:19;;;;;;;4.40;1.23;;;;;;;13.12;59.44;101281.81;5002554;28;20768;-61
2023/05/23 06:44:46;;;;;;;3.47;1.17;;;;;;;13.18;59.62;101283.59;4994365;28;20056;-61
2023/05/23 06:47:12;;;;;;;5.72;1.58;;;;;;;13.22;58.40;101277.53;4994525;28;20047;-61
2023/05/23 06:49:39;;;;;;;5.70;1.05;;;;;;;13.27;58.97;101273.22;4999916;28;20461;-61
2023/05/23 06:52:05;;;;;;;3.92;1.08;;;;;;;13.34;58.15;101280.22;4993838;28;20497;-61
2023/05/23 06:54:32;;;;;;;4.07;1.40;;;;;;;13.45;58.25;101282.00;4989991;28;20605;-61
2023/05/23 06:56:59;;;;;;;5.65;1.05;;;;;;;13.56;57.71;101285.56;4998071;28;20533;-61
2023/05/23 06:59:25;;;;;;;4.85;1.05;;;;;;;13.65;57.97;101289.97;4998686;28;20149;-61
2023/05/23 07:01:52;;;;;;;4.40;1.13;;;;;;;13.76;57.97;101287.38;4994200;28;20058;-61
2023/05/23 07:04:19;;;;;;;8.32;1.58;;;;;;;13.95;57.86;101292.66;4997449;28;20058;-61
2023/05/23 07:06:45;;;;;;;5.22;0.73;;;;;;;14.21;57.55;101284.03;4995585;28;20238;-61
2023/05/23 07:09:12;;;;;;;2.95;0.90;;;;;;;14.56;57.78;101277.97;4995599;28;20046;-61
2023/05/23 07:11:39;;;;;;;2.60;0.90;;;;;;;14.85;56.96;101287.59;4999807;28;20134;-61
2023/05/23 07:14:06;;;;;;;4.18;1.00;;;;;;;15.11;56.30;101283.22;4996199;28;20042;-61
2023/05/23 07:16:33;;;;;;;4.47;1.17;;;;;;;15.38;55.95;101277.06;4995260;28;20046;-62
2023/05/23 07:19:00;;;;;;;4.00;1.05;;;;;;;15.61;55.30;101278.72;4998180;28;20062;-61
2023/05/23 07:21:27;;;;;;;3.25;0.88;;;;;;;15.75;54.51;101280.41;5000782;28;20054;-60
2023/05/23 07:23:56;;;;;;;4.90;0.90;;;;;;;15.83;54.35;101278.63;4993258;28;20458;-58
2023/05/23 07:26:23;;;;;;;4.07;0.93;;;;;;;15.86;54.53;101282.94;4993961;28;20053;-61
2023/05/23 07:28:50;;;;;;;5.05;1.35;;;;;;;15.92;54.50;101280.31;4996599;28;20076;-61
2023/05/23 07:31:17;;;;;;;3.63;1.00;;;;;;;16.01;53.42;101292.50;4996097;28;20052;-61
2023/05/23 07:33:43;;;;;;;3.33;0.68;;;;;;;16.05;53.14;101291.59;4996858;28;20056;-61
2023/05/23 07:36:10;;;;;;;4.80;1.35;;;;;;;16.17;53.26;101301.09;4998034;28;20504;-62
2023/05/23 07:38:37;;;;;;;5.93;0.98;;;;;;;16.35;52.90;101287.03;4996708;28;20061;-61
2023/05/23 07:41:04;;;;;;;3.22;0.70;;;;;;;16.55;52.71;101299.13;4997956;28;20046;-59
2023/05/23 07:43:38;;;;;;;3.85;0.98;;;;;;;16.74;51.72;101293.72;4997705;28;20418;-59
2023/05/23 07:46:05;;;;;;;5.22;0.73;;;;;;;16.93;52.15;101292.69;4996758;28;20052;-59
2023/05/23 07:48:32;;;;;;;4.88;1.17;;;;;;;17.11;51.33;101288.19;5001227;28;20465;-59
2023/05/23 07:50:59;;;;;;;2.95;1.10;;;;;;;17.34;51.22;101297.56;5003293;28;20081;-58
2023/05/23 07:53:26;;;;;;;4.78;1.10;;;;;;;17.58;51.04;101295.53;5003005;28;20049;-60
2023/05/23 07:55:53;;;;;;;3.15;1.00;;;;;;;17.82;50.55;101293.47;4999133;28;20054;-60
2023/05/23 07:58:20;;;;;;;3.58;1.23;;;;;;;17.92;49.02;101296.84;5003384;28;20057;-59
2023/05/23 08:00:47;;;;;;;2.15;0.85;;;;;;;17.93;48.94;101294.22;5005341;28;20104;-60
2023/05/23 08:03:18;;;;;;;3.42;0.82;;;;;;;17.86;47.59;101303.03;5006770;28;20056;-59
2023/05/23 08:05:46;;;;;;;4.85;1.10;;;;;;;17.81;48.66;101297.00;4997205;28;20082;-59
2023/05/23 08:08:12;;;;;;;3.47;0.65;;;;;;;17.86;48.05;101308.28;5009248;28;20056;-60
2023/05/23 08:10:39;;;;;;;3.08;0.80;;;;;;;17.95;47.97;101302.94;5010178;28;20092;-59
2023/05/23 08:13:09;;;;;;;4.00;1.20;;;;;;;17.90;47.72;101309.97;5002093;28;20043;-59
2023/05/23 08:15:35;;;;;;;3.55;0.70;;;;;;;17.87;47.92;101320.53;5000462;28;20054;-59
2023/05/23 08:18:03;;;;;;;3.53;1.10;;;;;;;18.08;48.49;101318.50;5007725;28;20082;-60
2023/05/23 08:20:30;;;;;;;2.40;0.95;;;;;;;18.37;47.42;101319.84;5003996;28;20050;-60
2023/05/23 08:23:00;;;;;;;4.68;1.00;;;;;;;18.55;46.95;101323.09;4997456;28;20053;-59
2023/05/23 08:25:29;;;;;;;3.70;1.08;;;;;;;18.75;47.68;101321.00;5004515;28;20529;-60
2023/05/23 08:27:57;;;;;;;2.90;0.47;;;;;;;18.84;46.83;101324.34;5005286;28;20076;-60
2023/05/23 08:30:25;;;;;;;4.03;0.95;;;;;;;18.87;46.67;101324.31;5004455;28;20052;-60
2023/05/23 08:32:52;;;;;;;4.75;0.80;;;;;;;18.87;46.22;101329.56;5002637;28;20048;-59
2023/05/23 08:35:19;;;;;;;3.10;0.80;;;;;;;18.89;45.84;101335.66;5004812;28;20065;-59
2023/05/23 08:37:46;;;;;;;3.70;0.80;;;;;;;18.81;45.65;101340.16;4998297;28;20460;-59
2023/05/23 08:40:18;;;;;;;2.45;0.93;;;;;;;18.82;46.04;101331.41;5010187;28;20163;-59
2023/05/23 08:42:46;;;;;;;2.38;1.52;;;;;;;19.03;45.97;101327.53;5021237;28;20053;-59
2023/05/23 08:45:13;;;;;;;2.67;1.05;;;;;;;19.35;45.27;101327.88;4993701;28;20048;-59
2023/05/23 08:47:43;;;;;;;2.35;0.90;;;;;;;19.55;45.12;101326.63;4985252;28;20053;-59
2023/05/23 08:50:13;;;;;;;3.17;1.08;;;;;;;19.73;44.68;101330.63;4983659;28;20062;-59
2023/05/23 08:52:46;;;;;;;2.60;0.90;;;;;;;19.83;44.76;101331.31;4981107;28;20068;-61
2023/05/23 08:55:13;;;;;;;3.45;0.80;;;;;;;20.00;44.66;101329.19;4983580;28;20050;-60
2023/05/23 08:57:42;;;;;;;3.80;1.00;;;;;;;20.17;44.51;101333.25;4981238;28;20173;-60
2023/05/23 09:00:13;;;;;;;4.47;1.15;;;;;;;20.41;44.25;101328.31;4984605;28;20046;-59
2023/05/23 09:02:43;;;;;;;3.75;1.45;;;;;;;20.83;44.13;101323.81;4985814;28;20056;-61
2023/05/23 09:05:11;;;;;;;3.33;0.70;;;;;;;21.20;42.96;101333.38;4986568;28;20068;-61
2023/05/23 09:07:38;;;;;;;3.17;1.20;;;;;;;21.47;42.61;101340.59;4987270;28;20547;-61
2023/05/23 09:10:07;;;;;;;7.68;1.60;;;;;;;21.61;42.75;101332.28;4989223;28;20057;-61
2023/05/23 09:12:36;;;;;;;2.35;1.10;;;;;;;21.81;41.48;101332.59;4988033;28;20613;-59
2023/05/23 09:15:05;;;;;;;8.15;1.27;;;;;;;21.99;40.58;101327.69;4996744;28;20044;-60
2023/05/23 09:17:32;;;;;;;2.95;0.63;;;;;;;22.13;40.17;101329.03;4997625;28;20049;-60
2023/05/23 09:20:04;;;;;;;4.43;0.75;;;;;;;22.35;40.89;101329.22;4999363;28;20052;-60
2023/05/23 09:22:31;;;;;;;5.07;1.58;;;;;;;22.63;40.28;101332.78;4991882;28;21029;-61
2023/05/23 09:24:57;;;;;;;3.75;0.70;;;;;;;22.88;39.70;101324.00;4989527;28;20080;-60
2023/05/23 09:27:24;;;;;;;3.92;2.08;;;;;;;23.06;39.61;101326.03;4985206;28;20061;-60
2023/05/23 09:29:50;;;;;;;2.53;1.20;;;;;;;23.19;39.03;101325.56;4983279;28;20050;-60
2023/05/23 09:32:18;;;;;;;3.70;0.93;;;;;;;23.46;39.65;101328.19;4985046;28;20053;-60
2023/05/23 09:35:03;;;;;;;5.47;1.05;;;;;;;23.44;37.99;101327.38;4984388;28;20049;-59
2023/05/23 09:37:33;;;;;;;4.20;1.30;;;;;;;23.33;38.22;101312.75;4985609;28;20054;-54
2023/05/23 09:40:05;;;;;;;10.27;1.52;;;;;;;23.30;38.49;101323.41;4997447;28;20061;-58
2023/05/23 09:42:33;;;;;;;4.20;1.48;;;;;;;23.19;38.07;101321.16;4984086;28;21294;-55
2023/05/23 09:44:59;;;;;;;4.30;1.50;;;;;;;23.05;38.99;101324.31;4982286;28;20038;-60
2023/05/23 09:47:29;;;;;;;6.07;1.15;;;;;;;22.81;37.71;101320.72;4988368;28;20590;-55
2023/05/23 09:49:56;;;;;;;5.25;1.10;;;;;;;22.71;38.23;101320.19;4988765;28;20064;-54
2023/05/23 09:52:23;;;;;;;3.45;0.88;;;;;;;22.60;38.48;101323.19;4993907;28;20053;-51
2023/05/23 09:54:50;;;;;;;3.05;1.10;;;;;;;22.60;38.35;101328.47;4995514;28;20064;-50
2023/05/23 09:57:18;;;;;;;4.53;0.90;;;;;;;22.58;38.17;101331.16;4992683;28;20061;-50
2023/05/23 09:59:52;;;;;;;3.88;0.90;;;;;;;22.47;37.73;101333.25;5009686;28;20108;-51
2023/05/23 10:02:47;;;;;;;3.67;1.15;;;;;;;22.33;38.13;101331.06;4994332;28;20058;-54
2023/05/23 10:05:33;;;;;;;4.80;1.15;;;;;;;22.22;38.35;101328.72;4997216;28;20099;-51
2023/05/23 10:08:02;;;;;;;3.40;1.10;;;;;;;22.18;38.16;101327.09;4990875;28;20148;-57
2023/05/23 10:10:32;;;;;;;4.03;1.00;;;;;;;22.12;38.03;101333.44;4986475;28;20081;-55
2023/05/23 10:13:03;;;;;;;4.97;1.10;;;;;;;22.03;37.90;101333.72;4993376;28;20519;-52
2023/05/23 10:15:37;;;;;;;4.07;1.25;;;;;;;21.99;38.15;101332.97;4994916;28;20053;-51
2023/05/23 10:18:15;;;;;;;3.88;1.20;;;;;;;21.97;38.40;101334.78;4996769;28;20053;-55
2023/05/23 10:20:47;;;;;;;3.60;1.10;;;;;;;21.91;38.29;101329.69;4998160;28;20041;-56
2023/05/23 10:23:16;;;;;;;2.30;0.85;;;;;;;21.88;38.47;101335.91;4988787;28;20049;-54
2023/05/23 10:25:43;;;;;;;4.32;1.58;;;;;;;21.85;38.39;101340.44;4991554;28;20164;-55
2023/05/23 10:28:10;;;;;;;3.80;0.93;;;;;;;21.88;38.67;101330.63;4990845;28;20058;-52
2023/05/23 10:30:37;;;;;;;2.67;1.25;;;;;;;21.94;38.60;101329.59;4991896;28;20114;-54
2023/05/23 10:33:05;;;;;;;2.58;1.20;;;;;;;22.03;38.30;101337.25;4992990;28;20168;-53
2023/05/23 10:41:12;;;;;;;3.58;1.02;;;;;;;22.01;38.73;101333.78;5023079;27;20808;-54
2023/05/23 10:43:47;;;;;;;5.15;1.10;;;;;;;22.06;38.15;101331.84;5015580;28;20053;-52
2023/05/23 10:46:14;;;;;;;3.47;1.13;;;;;;;22.03;38.77;101342.50;5008074;28;20061;-52
2023/05/23 10:48:43;;;;;;;5.40;1.13;;;;;;;21.93;38.07;101338.41;4998907;28;20119;-54
2023/05/23 10:51:13;;;;;;;5.22;1.42;;;;;;;21.89;38.61;101336.78;4999532;28;20050;-50
2023/05/23 10:53:41;;;;;;;4.00;1.35;;;;;;;21.95;39.08;101326.03;4998815;28;20089;-53
2023/05/23 10:56:18;;;;;;;3.45;0.70;;;;;;;21.98;39.39;101327.75;5000294;28;20049;-52
2023/05/23 10:58:45;;;;;;;4.72;1.13;;;;;;;21.96;38.94;101325.16;5001081;28;20053;-51
2023/05/23 11:01:16;;;;;;;3.42;1.08;;;;;;;22.04;39.35;101330.16;4997962;28;20108;-52
2023/05/23 11:09:05;;;;;;;4.43;2.10;;;;;;;22.13;37.71;101318.47;5029813;28;20417;-54
2023/05/23 11:11:51;;;;;;;5.78;2.60;;;;;;;22.11;38.59;101309.72;5013468;28;20129;-49
2023/05/23 11:14:19;;;;;;;5.03;1.52;;;;;;;22.36;38.19;101319.53;5011204;28;20222;-53
2023/05/23 11:16:47;;;;;;;5.03;2.30;;;;;;;22.53;39.02;101325.09;5012680;28;20064;-51
2023/05/23 11:22:00;;;;;;;4.32;0.88;;;;;;;22.57;36.97;101321.50;5031790;27;20395;-49
2023/05/23 11:24:50;;;;;;;3.50;2.67;;;;;;;22.54;37.64;101313.66;5006744;28;21217;-49
2023/05/23 11:27:33;;;;;;;5.03;1.30;;;;;;;22.65;37.45;101320.38;5007710;28;20661;-50
2023/05/23 11:32:42;;;;;;;7.57;1.73;;;;;;;22.72;37.45;101311.34;5044196;28;20427;-53
2023/05/23 11:35:10;;;;;;;4.78;1.20;;;;;;;22.58;37.49;101310.03;5001362;28;20080;-53
2023/05/23 11:37:38;;;;;;;4.00;1.35;;;;;;;22.65;37.28;101309.81;4998564;28;20136;-51
2023/05/23 11:40:26;;;;;;;2.38;1.20;;;;;;;22.78;37.70;101311.13;5000255;28;20054;-52
2023/05/23 11:42:53;;;;;;;3.03;1.10;;;;;;;22.91;37.08;101310.72;4998806;28;20708;-53
2023/05/23 11:45:21;;;;;;;4.22;2.10;;;;;;;22.98;37.94;101307.81;5012196;28;20045;-50
2023/05/23 11:47:48;;;;;;;5.18;1.02;;;;;;;23.10;37.98;101305.66;4982927;28;20062;-52
2023/05/23 11:50:16;;;;;;;3.42;1.10;;;;;;;23.24;37.63;101310.44;4982772;28;20050;-54